Time;durP1;ratioP1;P1;durP2;ratioP2;P2;SDS_P1;SDS_P2;PMS_P1;PMS_P2;Temp;Humidity;BMP_temperature;BMP_pressure;BME280_temperature;BME280_humidity;BME280_pressure;Samples;Min_cycle;Max_cycle;Signal;HPM_P1;HPM_P2
2023/05/03 00:00:39;;;;;;;5.20;3.33;;;;;;;8.03;62.79;102612.06;3607404;39;20062;-66
2023/05/03 00:03:05;;;;;;;5.90;2.70;;;;;;;8.07;62.38;102628.94;3607986;39;20589;-66
2023/05/03 00:05:31;;;;;;;5.68;3.00;;;;;;;8.05;62.21;102628.94;3610139;39;20354;-66
2023/05/03 00:07:59;;;;;;;5.95;3.20;;;;;;;8.01;62.81;102624.59;3608327;39;20317;-66
2023/05/03 00:10:25;;;;;;;7.28;3.03;;;;;;;7.99;63.07;102622.84;3608655;39;20046;-65
2023/05/03 00:12:50;;;;;;;5.75;3.20;;;;;;;7.98;62.54;102623.78;3605616;39;20439;-66
2023/05/03 00:15:16;;;;;;;7.25;3.42;;;;;;;7.78;62.90;102597.44;3604768;39;20297;-66
2023/05/03 00:17:41;;;;;;;4.57;2.97;;;;;;;7.92;63.06;102624.78;3607132;39;20065;-66
2023/05/03 00:20:08;;;;;;;4.82;3.00;;;;;;;7.57;62.58;102572.88;3607431;39;20325;-66
2023/05/03 00:22:35;;;;;;;7.22;3.10;;;;;;;7.59;63.02;102573.75;3609411;39;20126;-66
2023/05/03 00:25:01;;;;;;;6.05;3.30;;;;;;;7.87;63.08;102626.72;3608778;39;20480;-67
2023/05/03 00:27:27;;;;;;;8.95;3.60;;;;;;;7.83;63.28;102633.03;3605655;39;20051;-67
2023/05/03 00:29:53;;;;;;;8.18;3.10;;;;;;;7.79;62.88;102632.22;3594508;39;20051;-66
2023/05/03 00:32:22;;;;;;;4.80;3.63;;;;;;;7.79;63.57;102636.69;3604788;39;20044;-66
2023/05/03 00:34:57;;;;;;;6.20;3.20;;;;;;;7.76;63.17;102631.41;3609149;39;20057;-67
2023/05/03 00:37:24;;;;;;;4.63;3.42;;;;;;;7.74;63.28;102627.84;3611114;39;20363;-67
2023/05/03 00:39:49;;;;;;;3.55;2.90;;;;;;;7.72;63.49;102630.59;3610227;39;20063;-66
2023/05/03 00:42:15;;;;;;;6.13;3.00;;;;;;;7.72;63.38;102635.06;3612009;39;20043;-66
2023/05/03 00:44:41;;;;;;;8.65;5.28;;;;;;;7.65;63.79;102623.59;3607247;39;20457;-66
2023/05/03 00:47:07;;;;;;;11.32;5.65;;;;;;;7.67;63.92;102629.78;3605835;39;20137;-66
2023/05/03 00:49:33;;;;;;;4.07;3.67;;;;;;;7.65;63.53;102629.84;3609099;39;20067;-66
2023/05/03 00:51:59;;;;;;;17.17;9.75;;;;;;;7.64;63.65;102621.81;3609479;39;20143;-66
2023/05/03 00:54:29;;;;;;;19.00;10.20;;;;;;;7.62;63.72;102629.88;3611086;39;20314;-66
2023/05/03 00:56:55;;;;;;;9.63;5.20;;;;;;;7.61;63.93;102617.44;3608981;39;20365;-66
2023/05/03 00:59:22;;;;;;;7.05;3.17;;;;;;;7.51;63.76;102610.47;3610981;39;20054;-66
2023/05/03 01:01:50;;;;;;;5.72;3.35;;;;;;;7.18;64.23;102556.75;3608416;39;20047;-66
2023/05/03 01:04:18;;;;;;;4.15;3.03;;;;;;;7.52;64.39;102616.75;3611174;39;20066;-66
2023/05/03 01:06:56;;;;;;;4.88;3.10;;;;;;;7.46;64.13;102607.03;3609578;39;20127;-66
2023/05/03 01:09:56;;;;;;;4.72;3.20;;;;;;;7.41;64.41;102608.91;3609874;39;20051;-66
2023/05/03 01:13:09;;;;;;;9.52;3.45;;;;;;;7.38;64.57;102608.97;3610853;39;20050;-66
2023/05/03 01:15:38;;;;;;;7.97;3.13;;;;;;;7.33;64.31;102616.22;3605923;39;20402;-66
2023/05/03 01:18:17;;;;;;;6.18;3.10;;;;;;;7.31;64.81;102618.03;3608107;39;20051;-66
2023/05/03 01:20:48;;;;;;;5.45;3.30;;;;;;;7.31;64.55;102618.03;3609980;39;20499;-66
2023/05/03 01:23:47;;;;;;;4.45;2.75;;;;;;;7.30;64.74;102621.63;3610188;39;20054;-66
2023/05/03 01:26:20;;;;;;;8.02;3.15;;;;;;;7.28;64.75;102613.63;3611725;39;20123;-66
2023/05/03 01:28:46;;;;;;;6.50;2.78;;;;;;;7.29;64.32;102627.88;3608971;39;20050;-66
2023/05/03 01:31:32;;;;;;;6.60;3.45;;;;;;;7.26;64.36;102619.91;3606400;39;20062;-66
2023/05/03 01:34:37;;;;;;;4.25;2.90;;;;;;;7.24;64.78;102619.06;3609768;39;20720;-66
2023/05/03 01:37:07;;;;;;;7.68;3.30;;;;;;;7.23;64.62;102628.91;3610164;39;20063;-66
2023/05/03 01:39:50;;;;;;;5.15;3.00;;;;;;;7.21;64.93;102628.91;3610003;39;20126;-66
2023/05/03 01:42:18;;;;;;;4.97;3.33;;;;;;;7.19;64.60;102630.72;3604936;39;20060;-68
2023/05/03 01:44:46;;;;;;;5.03;3.25;;;;;;;7.19;64.82;102619.16;3604173;39;20691;-66
2023/05/03 01:47:13;;;;;;;7.43;2.92;;;;;;;7.15;65.42;102625.47;3610892;39;20062;-66
2023/05/03 01:49:39;;;;;;;4.57;3.15;;;;;;;7.15;65.56;102626.34;3610280;39;20063;-68
2023/05/03 01:52:05;;;;;;;5.68;3.20;;;;;;;7.12;65.29;102621.06;3608628;39;20092;-66
2023/05/03 01:54:31;;;;;;;5.57;3.53;;;;;;;7.13;65.26;102627.28;3611055;39;20055;-66
2023/05/03 01:56:57;;;;;;;6.57;3.38;;;;;;;7.11;65.00;102627.31;3607432;39;20058;-66
2023/05/03 01:59:22;;;;;;;4.32;3.47;;;;;;;7.09;65.37;102634.47;3609136;39;20067;-66
2023/05/03 02:01:48;;;;;;;5.22;3.10;;;;;;;6.98;65.25;102604.41;3609740;39;20058;-66
2023/05/03 02:04:13;;;;;;;8.23;3.25;;;;;;;7.05;65.61;102627.44;3599040;39;20611;-66
2023/05/03 02:06:39;;;;;;;8.75;3.78;;;;;;;7.03;65.39;102623.03;3607456;39;20051;-66
2023/05/03 02:09:05;;;;;;;4.55;3.28;;;;;;;6.96;65.00;102620.44;3607465;39;20047;-66
2023/05/03 02:11:31;;;;;;;8.40;3.58;;;;;;;6.98;65.65;102633.81;3608854;39;20341;-66
2023/05/03 02:13:56;;;;;;;6.75;3.53;;;;;;;6.96;66.04;102625.81;3609476;39;20410;-66
2023/05/03 02:16:22;;;;;;;6.32;3.30;;;;;;;6.91;66.24;102618.75;3611037;39;20057;-66
2023/05/03 02:18:47;;;;;;;6.03;3.33;;;;;;;6.93;65.88;102627.66;3610004;39;20297;-67
2023/05/03 02:21:13;;;;;;;6.60;3.25;;;;;;;6.89;66.06;102620.59;3610842;39;20049;-66
2023/05/03 02:23:39;;;;;;;6.05;3.65;;;;;;;6.82;65.98;102613.56;3609498;39;20409;-66
2023/05/03 02:26:05;;;;;;;7.80;3.60;;;;;;;6.82;66.28;102613.56;3609511;39;20074;-66
2023/05/03 02:28:31;;;;;;;7.68;3.25;;;;;;;6.79;66.64;102610.97;3611196;39;20054;-66
2023/05/03 02:30:56;;;;;;;9.40;6.05;;;;;;;6.62;66.33;102585.41;3608006;39;20135;-66
2023/05/03 02:33:22;;;;;;;4.85;3.75;;;;;;;6.73;66.34;102606.63;3610678;39;20098;-65
2023/05/03 02:35:47;;;;;;;6.55;3.40;;;;;;;6.65;66.77;102590.69;3608600;39;20046;-66
2023/05/03 02:38:13;;;;;;;5.13;3.28;;;;;;;6.65;67.22;102600.50;3608674;39;20377;-66
2023/05/03 02:40:39;;;;;;;4.75;3.17;;;;;;;6.62;67.58;102588.09;3608791;39;20081;-66
2023/05/03 02:43:04;;;;;;;6.95;3.72;;;;;;;6.49;67.91;102573.16;3609230;39;20054;-66
2023/05/03 02:45:30;;;;;;;6.82;3.45;;;;;;;6.57;67.92;102589.97;3609359;39;20127;-66
2023/05/03 02:47:55;;;;;;;5.68;3.53;;;;;;;6.55;68.24;102582.88;3597567;39;20080;-66
2023/05/03 02:50:21;;;;;;;5.35;3.47;;;;;;;6.52;67.96;102575.78;3609735;39;20059;-66
2023/05/03 02:52:47;;;;;;;7.15;3.53;;;;;;;6.51;67.83;102572.25;3609696;39;20065;-67
2023/05/03 02:55:12;;;;;;;7.78;4.10;;;;;;;6.48;68.05;102560.72;3609829;39;20070;-66
2023/05/03 02:57:38;;;;;;;9.48;3.95;;;;;;;6.44;67.83;102557.22;3609806;39;20055;-67
2023/05/03 03:00:05;;;;;;;7.43;3.78;;;;;;;6.40;68.13;102554.63;3609989;39;20051;-65
2023/05/03 03:02:30;;;;;;;9.20;4.00;;;;;;;6.45;68.03;102569.66;3606312;39;20047;-67
2023/05/03 03:04:56;;;;;;;5.55;3.35;;;;;;;6.44;67.72;102569.72;3605756;39;21747;-66
2023/05/03 03:07:22;;;;;;;7.65;3.67;;;;;;;6.42;67.69;102572.41;3607751;39;20061;-66
2023/05/03 03:09:47;;;;;;;7.35;3.80;;;;;;;6.40;67.94;102578.66;3606105;39;20067;-67
2023/05/03 03:12:13;;;;;;;9.05;3.63;;;;;;;6.42;68.13;102584.88;3607073;39;20054;-66
2023/05/03 03:14:40;;;;;;;5.32;3.50;;;;;;;6.28;67.51;102559.28;3607300;39;20067;-66
2023/05/03 03:17:09;;;;;;;7.95;3.70;;;;;;;6.42;67.51;102583.06;3599254;39;20094;-67
2023/05/03 03:19:34;;;;;;;5.28;3.70;;;;;;;6.43;67.55;102583.97;3606025;39;20305;-68
2023/05/03 03:22:00;;;;;;;8.50;3.80;;;;;;;6.43;67.57;102579.50;3607915;39;20388;-67
2023/05/03 03:24:26;;;;;;;6.75;3.65;;;;;;;6.38;67.37;102564.47;3609279;39;20050;-67
2023/05/03 03:26:51;;;;;;;6.07;3.40;;;;;;;6.41;67.27;102584.00;3606435;39;20054;-66
2023/05/03 03:29:17;;;;;;;4.95;3.60;;;;;;;6.38;66.83;102596.53;3608356;39;20054;-67
2023/05/03 03:31:43;;;;;;;7.45;3.75;;;;;;;6.33;67.22;102599.25;3608553;39;20135;-67
2023/05/03 03:34:11;;;;;;;7.75;3.65;;;;;;;6.32;67.83;102601.97;3604470;39;20047;-66
2023/05/03 03:36:38;;;;;;;8.55;4.00;;;;;;;6.31;67.46;102600.16;3610416;39;20047;-68
2023/05/03 03:39:04;;;;;;;7.13;3.78;;;;;;;6.21;67.42;102578.06;3611147;39;20050;-67
2023/05/03 03:41:31;;;;;;;7.35;3.78;;;;;;;6.27;67.03;102591.34;3609753;39;20361;-67
2023/05/03 03:43:57;;;;;;;8.00;4.13;;;;;;;6.25;67.29;102596.72;3608934;39;20120;-67
2023/05/03 03:46:23;;;;;;;7.82;3.67;;;;;;;6.22;67.49;102591.41;3607407;39;20082;-66
2023/05/03 03:48:49;;;;;;;7.35;4.18;;;;;;;6.21;67.53;102591.41;3607137;39;20242;-67
2023/05/03 03:51:15;;;;;;;5.70;3.90;;;;;;;6.15;67.93;102578.16;3608718;39;20449;-67
2023/05/03 03:53:41;;;;;;;5.10;3.90;;;;;;;6.18;67.82;102581.66;3610076;39;20097;-67
2023/05/03 03:56:06;;;;;;;8.63;4.10;;;;;;;6.11;68.01;102565.78;3611092;39;20420;-67
2023/05/03 03:58:32;;;;;;;7.03;4.38;;;;;;;5.85;67.92;102531.44;3610944;39;20373;-66
2023/05/03 04:00:59;;;;;;;8.23;4.05;;;;;;;6.11;67.99;102588.00;3610816;39;20055;-67
2023/05/03 04:03:25;;;;;;;6.35;4.10;;;;;;;6.11;67.87;102604.03;3609841;39;20062;-67
2023/05/03 04:05:51;;;;;;;7.72;4.80;;;;;;;6.11;68.17;102596.03;3605904;39;20082;-66
2023/05/03 04:08:17;;;;;;;8.43;4.05;;;;;;;6.11;67.87;102601.34;3606711;39;20394;-66
2023/05/03 04:10:43;;;;;;;8.55;4.47;;;;;;;6.09;67.93;102599.59;3607664;39;20055;-67
2023/05/03 04:13:09;;;;;;;6.90;4.50;;;;;;;6.02;67.84;102590.81;3608603;39;20051;-67
2023/05/03 04:15:35;;;;;;;5.85;3.95;;;;;;;6.07;68.57;102602.31;3606525;39;20066;-67
2023/05/03 04:18:00;;;;;;;5.68;4.40;;;;;;;6.01;67.92;102591.72;3609600;39;20058;-68
2023/05/03 04:20:26;;;;;;;10.30;5.07;;;;;;;5.94;68.04;102582.06;3609355;39;20054;-68
2023/05/03 04:22:52;;;;;;;5.72;4.22;;;;;;;6.02;68.76;102597.03;3609253;39;20112;-67
2023/05/03 04:25:18;;;;;;;10.68;4.65;;;;;;;6.03;68.16;102600.59;3608497;39;20066;-68
2023/05/03 04:27:44;;;;;;;7.50;4.78;;;;;;;5.60;68.62;102531.78;3607069;39;20075;-68
2023/05/03 04:30:11;;;;;;;8.80;4.57;;;;;;;5.96;68.34;102599.81;3608605;39;20059;-69
2023/05/03 04:32:39;;;;;;;8.32;4.53;;;;;;;5.99;68.80;102594.44;3607715;39;20051;-69
2023/05/03 04:35:09;;;;;;;10.85;4.85;;;;;;;5.91;68.61;102595.41;3608153;39;20367;-69
2023/05/03 04:37:40;;;;;;;7.20;4.38;;;;;;;5.98;68.92;102610.47;3612101;39;20463;-68
2023/05/03 04:40:09;;;;;;;7.68;5.05;;;;;;;5.60;68.24;102558.47;3609472;39;20057;-69
2023/05/03 04:42:35;;;;;;;7.10;5.00;;;;;;;5.84;68.87;102599.94;3608383;39;20816;-69
2023/05/03 04:45:02;;;;;;;7.53;4.43;;;;;;;5.97;68.39;102622.06;3607771;39;20062;-69
2023/05/03 04:47:29;;;;;;;9.27;4.82;;;;;;;5.99;68.72;102628.22;3607838;39;20086;-69
2023/05/03 04:49:54;;;;;;;7.15;4.80;;;;;;;6.00;68.92;102638.03;3609156;39;20055;-69
2023/05/03 04:52:20;;;;;;;11.45;5.07;;;;;;;6.01;69.10;102639.78;3609750;39;20298;-69
2023/05/03 04:54:46;;;;;;;8.10;5.15;;;;;;;6.07;69.77;102647.72;3605257;39;20058;-69
2023/05/03 04:57:12;;;;;;;9.85;4.68;;;;;;;6.12;69.14;102648.53;3605781;39;20062;-69
2023/05/03 04:59:37;;;;;;;7.90;5.13;;;;;;;6.21;68.92;102664.41;3608762;39;20098;-69
2023/05/03 05:02:03;;;;;;;9.02;4.78;;;;;;;6.32;68.55;102671.41;3608974;39;20062;-69
2023/05/03 05:04:28;;;;;;;9.02;5.82;;;;;;;6.41;67.72;102669.47;3607118;39;20051;-69
2023/05/03 05:06:54;;;;;;;12.43;5.05;;;;;;;6.48;68.64;102672.94;3608219;39;20059;-69
2023/05/03 05:09:23;;;;;;;13.25;5.38;;;;;;;6.55;67.85;102674.59;3611143;39;20332;-69
2023/05/03 05:11:49;;;;;;;8.27;5.13;;;;;;;6.63;67.41;102672.72;3598011;39;20318;-69
2023/05/03 05:14:15;;;;;;;13.52;5.50;;;;;;;6.72;67.14;102671.66;3610126;39;20062;-69
2023/05/03 05:16:41;;;;;;;6.95;4.90;;;;;;;6.80;66.96;102659.06;3609678;39;20297;-69
2023/05/03 05:19:07;;;;;;;6.65;4.80;;;;;;;6.98;66.48;102668.56;3611254;39;20172;-69
2023/05/03 05:21:33;;;;;;;11.43;5.05;;;;;;;7.10;65.65;102662.09;3612208;39;20275;-69
2023/05/03 05:23:59;;;;;;;10.15;4.80;;;;;;;6.66;65.27;102568.44;3612192;39;20069;-69
2023/05/03 05:26:26;;;;;;;9.15;4.82;;;;;;;7.15;65.22;102637.03;3614069;39;20067;-69
2023/05/03 05:28:52;;;;;;;8.23;4.40;;;;;;;7.40;64.71;102664.22;3611584;39;20124;-71
2023/05/03 05:31:18;;;;;;;8.80;5.45;;;;;;;7.44;64.64;102662.38;3611461;39;20051;-69
2023/05/03 05:33:44;;;;;;;5.90;4.55;;;;;;;7.46;64.37;102660.56;3601465;39;20047;-70
2023/05/03 05:36:10;;;;;;;9.13;5.00;;;;;;;7.12;64.73;102597.00;3611902;39;20296;-69
2023/05/03 05:38:35;;;;;;;12.02;5.50;;;;;;;7.44;64.79;102648.97;3609150;39;20394;-69
2023/05/03 05:41:01;;;;;;;7.78;4.57;;;;;;;7.53;64.05;102662.19;3606802;39;20263;-69
2023/05/03 05:43:27;;;;;;;8.40;4.20;;;;;;;7.55;64.28;102656.78;3611777;39;20382;-69
2023/05/03 05:45:53;;;;;;;4.90;4.45;;;;;;;7.58;63.68;102663.00;3614849;39;20048;-69
2023/05/03 05:48:19;;;;;;;8.38;4.63;;;;;;;7.58;63.41;102660.31;3601795;39;20084;-69
2023/05/03 05:50:45;;;;;;;8.25;4.32;;;;;;;7.63;64.08;102661.09;3610557;39;20055;-69
2023/05/03 05:53:10;;;;;;;7.78;4.30;;;;;;;7.63;63.80;102653.06;3606054;39;20402;-69
2023/05/03 05:55:37;;;;;;;7.75;5.03;;;;;;;7.70;63.83;102666.31;3609143;39;20059;-69
2023/05/03 05:58:02;;;;;;;10.95;4.80;;;;;;;7.74;63.80;102670.69;3602277;39;20054;-70
2023/05/03 06:00:29;;;;;;;9.77;4.65;;;;;;;7.78;63.68;102670.59;3606739;39;20059;-70
2023/05/03 06:02:55;;;;;;;9.13;5.28;;;;;;;7.83;64.02;102674.09;3609149;39;20055;-70
2023/05/03 06:05:21;;;;;;;9.35;4.80;;;;;;;7.89;63.04;102678.41;3609460;39;20879;-70
2023/05/03 06:07:47;;;;;;;7.57;4.65;;;;;;;7.97;62.95;102675.59;3609910;39;20051;-69
2023/05/03 06:10:12;;;;;;;5.93;4.40;;;;;;;8.05;62.83;102674.47;3608027;39;20122;-70
2023/05/03 06:12:38;;;;;;;6.60;4.50;;;;;;;8.08;62.92;102655.66;3607326;39;20054;-69
2023/05/03 06:15:05;;;;;;;7.15;4.88;;;;;;;7.83;62.23;102587.50;3608031;39;20338;-70
2023/05/03 06:17:30;;;;;;;11.70;4.38;;;;;;;8.39;62.05;102663.06;3608093;39;20100;-70
2023/05/03 06:19:57;;;;;;;7.88;4.60;;;;;;;8.46;61.83;102651.28;3609654;39;20342;-70
2023/05/03 06:22:24;;;;;;;11.07;4.40;;;;;;;7.63;61.82;102480.88;3609772;39;20063;-70
2023/05/03 06:24:50;;;;;;;5.20;4.00;;;;;;;8.82;60.73;102656.69;3610146;39;20038;-70
2023/05/03 06:27:16;;;;;;;5.68;4.32;;;;;;;8.94;61.26;102653.66;3608268;39;20387;-70
2023/05/03 06:29:43;;;;;;;5.93;3.97;;;;;;;9.11;60.13;102655.03;3608080;39;20039;-70
2023/05/03 06:32:09;;;;;;;7.28;4.35;;;;;;;8.91;60.03;102589.41;3597338;39;20047;-70
2023/05/03 06:34:36;;;;;;;6.22;4.13;;;;;;;9.40;58.64;102649.75;3608152;39;20103;-70
2023/05/03 06:37:02;;;;;;;6.25;4.53;;;;;;;9.56;58.89;102652.91;3609883;39;20220;-70
2023/05/03 06:39:27;;;;;;;7.90;3.83;;;;;;;9.74;57.82;102656.88;3605534;39;20055;-69
2023/05/03 06:41:53;;;;;;;9.68;4.35;;;;;;;9.96;58.25;102651.75;3609976;39;20270;-70
2023/05/03 06:44:19;;;;;;;5.47;4.10;;;;;;;10.25;56.87;102658.03;3608419;39;20144;-69
2023/05/03 06:46:45;;;;;;;6.53;4.30;;;;;;;10.53;56.63;102650.00;3609293;39;20051;-70
2023/05/03 06:49:10;;;;;;;4.70;3.85;;;;;;;10.79;56.37;102647.34;3605798;39;20382;-70
2023/05/03 06:51:36;;;;;;;9.60;3.88;;;;;;;10.99;54.16;102645.78;3606624;39;20319;-69
2023/05/03 06:54:08;;;;;;;6.65;3.63;;;;;;;11.11;53.93;102639.97;3608372;39;20050;-70
2023/05/03 06:56:34;;;;;;;6.63;3.72;;;;;;;11.15;54.09;102633.53;3599851;39;20389;-70
2023/05/03 06:59:00;;;;;;;4.90;3.47;;;;;;;11.32;53.16;102625.75;3610723;39;20124;-70
2023/05/03 07:01:26;;;;;;;9.77;3.95;;;;;;;11.53;52.69;102645.63;3609856;39;20063;-70
2023/05/03 07:03:52;;;;;;;7.00;4.05;;;;;;;11.62;51.93;102642.59;3606844;39;20048;-69
2023/05/03 07:06:18;;;;;;;6.88;4.22;;;;;;;11.71;53.32;102641.38;3608642;39;20066;-69
2023/05/03 07:08:44;;;;;;;9.77;4.20;;;;;;;11.77;52.40;102643.84;3610574;39;20047;-69
2023/05/03 07:11:10;;;;;;;11.18;5.93;;;;;;;11.85;52.13;102639.06;3607905;39;20406;-70
2023/05/03 07:13:35;;;;;;;6.07;4.28;;;;;;;11.94;51.44;102642.34;3607017;39;20055;-69
2023/05/03 07:16:01;;;;;;;7.32;4.03;;;;;;;11.99;51.47;102646.63;3599033;39;20088;-69
2023/05/03 07:18:27;;;;;;;7.30;4.53;;;;;;;12.11;51.97;102637.16;3608938;39;20047;-69
2023/05/03 07:20:52;;;;;;;8.27;4.72;;;;;;;12.36;50.60;102644.28;3607366;39;20074;-70
2023/05/03 07:23:18;;;;;;;7.15;4.75;;;;;;;12.51;50.10;102641.84;3607543;39;20086;-69
2023/05/03 07:25:44;;;;;;;7.57;4.50;;;;;;;12.61;50.54;102639.66;3607822;39;20059;-68
2023/05/03 07:28:11;;;;;;;8.38;4.70;;;;;;;12.49;50.38;102592.47;3608858;39;20054;-69
2023/05/03 07:30:36;;;;;;;8.13;4.20;;;;;;;13.14;49.34;102646.44;3606945;39;20142;-69
2023/05/03 07:33:02;;;;;;;6.65;4.50;;;;;;;12.71;49.10;102549.28;3608111;39;20055;-68
2023/05/03 07:35:28;;;;;;;7.55;4.30;;;;;;;13.42;47.65;102629.91;3607472;39;20054;-68
2023/05/03 07:37:55;;;;;;;10.43;4.45;;;;;;;13.59;47.41;102634.56;3607630;39;20382;-68
2023/05/03 07:40:21;;;;;;;9.48;4.00;;;;;;;13.76;47.27;102625.66;3607064;39;20075;-69
2023/05/03 07:42:46;;;;;;;6.57;4.50;;;;;;;13.89;46.51;102616.03;3608149;39;20410;-68
2023/05/03 07:45:12;;;;;;;7.43;4.32;;;;;;;14.11;46.62;102621.28;3603474;39;20046;-68
2023/05/03 07:47:38;;;;;;;10.63;4.70;;;;;;;14.22;46.34;102621.66;3606744;39;20066;-69
2023/05/03 07:50:06;;;;;;;5.85;3.83;;;;;;;14.29;45.55;102625.81;3604956;39;20066;-68
2023/05/03 07:52:36;;;;;;;6.93;4.07;;;;;;;14.33;45.30;102622.00;3609602;39;20069;-67
2023/05/03 07:55:02;;;;;;;9.05;4.32;;;;;;;14.28;44.53;102598.84;3610242;39;20059;-68
2023/05/03 07:57:28;;;;;;;9.15;4.30;;;;;;;14.33;43.99;102608.47;3603209;39;20087;-67
2023/05/03 07:59:54;;;;;;;6.53;3.80;;;;;;;14.16;44.94;102563.31;3603732;39;20062;-67
2023/05/03 08:02:20;;;;;;;8.15;3.70;;;;;;;14.57;44.45;102601.00;3605776;39;20185;-67
2023/05/03 08:04:46;;;;;;;7.53;3.38;;;;;;;14.62;44.29;102601.66;3606676;39;20051;-67
2023/05/03 08:07:12;;;;;;;6.20;3.80;;;;;;;14.78;43.72;102601.75;3607339;39;20079;-68
2023/05/03 08:09:37;;;;;;;5.82;3.63;;;;;;;14.94;43.48;102598.22;3610522;39;20055;-67
2023/05/03 08:12:03;;;;;;;7.47;3.67;;;;;;;14.94;43.30;102572.06;3613223;39;20051;-68
2023/05/03 08:14:29;;;;;;;5.97;3.58;;;;;;;15.22;43.46;102581.41;3604636;39;20473;-67
2023/05/03 08:16:54;;;;;;;9.02;3.90;;;;;;;15.30;43.18;102576.47;3606564;39;20119;-68
2023/05/03 08:19:20;;;;;;;7.88;3.92;;;;;;;15.35;42.49;102579.81;3604763;39;20059;-68
2023/05/03 08:21:46;;;;;;;7.40;3.47;;;;;;;15.50;42.84;102584.38;3595004;39;20052;-68
2023/05/03 08:24:12;;;;;;;9.50;3.60;;;;;;;15.45;41.88;102589.19;3599917;39;20047;-68
2023/05/03 08:26:40;;;;;;;8.43;3.30;;;;;;;15.60;42.36;102578.47;3605845;39;20054;-69
2023/05/03 08:29:07;;;;;;;4.68;3.50;;;;;;;15.68;41.28;102584.38;3603608;39;20062;-68
2023/05/03 08:31:33;;;;;;;13.77;3.95;;;;;;;15.86;41.37;102583.38;3608003;39;20147;-68
2023/05/03 08:34:00;;;;;;;7.90;3.30;;;;;;;16.04;40.95;102575.13;3606776;39;20326;-68
2023/05/03 08:36:26;;;;;;;6.18;3.15;;;;;;;16.02;39.74;102578.81;3608537;39;20397;-68
2023/05/03 08:38:52;;;;;;;4.05;2.95;;;;;;;16.07;39.77;102583.09;3606772;39;20057;-68
2023/05/03 08:41:29;;;;;;;5.60;2.72;;;;;;;16.19;39.55;102574.25;3604439;39;20054;-68
2023/05/03 08:43:57;;;;;;;6.43;3.13;;;;;;;16.32;38.98;102575.28;3596552;39;20047;-67
2023/05/03 08:46:27;;;;;;;5.40;3.17;;;;;;;16.50;39.19;102572.50;3606482;39;20066;-68
2023/05/03 08:48:54;;;;;;;5.75;2.95;;;;;;;16.60;38.27;102565.53;3603480;39;20349;-68
2023/05/03 08:51:23;;;;;;;5.68;3.30;;;;;;;16.70;38.41;102573.03;3609021;39;20107;-68
2023/05/03 08:53:49;;;;;;;16.15;3.83;;;;;;;16.52;37.29;102521.66;3607313;39;20050;-68
2023/05/03 08:56:31;;;;;;;5.28;3.10;;;;;;;16.90;37.38;102585.47;3609549;39;20050;-68
2023/05/03 08:59:03;;;;;;;5.25;3.10;;;;;;;16.98;36.66;102587.72;3608262;39;20040;-67
2023/05/03 09:01:29;;;;;;;8.15;2.95;;;;;;;17.11;37.90;102593.28;3610696;39;20051;-68
2023/05/03 09:03:55;;;;;;;7.38;3.47;;;;;;;17.03;37.69;102580.16;3608346;39;20069;-68
2023/05/03 09:06:26;;;;;;;5.50;3.03;;;;;;;17.21;37.24;102578.13;3608141;39;20065;-68
2023/05/03 09:08:53;;;;;;;5.13;3.30;;;;;;;17.21;36.75;102561.84;3609186;39;20551;-68
2023/05/03 09:11:25;;;;;;;7.15;3.45;;;;;;;17.30;36.21;102588.44;3609629;39;20123;-68
2023/05/03 09:13:54;;;;;;;3.85;3.40;;;;;;;17.43;36.49;102591.25;3606677;39;20120;-68
2023/05/03 09:16:27;;;;;;;5.38;3.20;;;;;;;17.45;36.67;102585.75;3609525;39;20367;-68
2023/05/03 09:19:10;;;;;;;5.18;3.10;;;;;;;17.53;35.84;102583.41;3612979;39;20084;-69
2023/05/03 09:21:39;;;;;;;4.13;3.28;;;;;;;17.52;35.90;102584.38;3606756;39;20051;-69
2023/05/03 09:24:18;;;;;;;5.80;3.30;;;;;;;17.69;36.28;102589.63;3608994;39;20067;-67
2023/05/03 09:26:48;;;;;;;4.55;2.78;;;;;;;17.86;35.51;102581.28;3608177;39;20316;-67
2023/05/03 09:29:30;;;;;;;8.73;3.00;;;;;;;17.92;35.00;102581.84;3608532;39;20086;-68
2023/05/03 09:32:04;;;;;;;6.90;3.70;;;;;;;18.01;35.32;102583.97;3611262;39;20325;-69
2023/05/03 09:34:31;;;;;;;5.97;3.08;;;;;;;18.22;36.66;102576.25;3611635;39;20051;-68
2023/05/03 09:36:56;;;;;;;7.43;3.65;;;;;;;18.37;35.20;102560.75;3615050;39;20131;-68
2023/05/03 09:39:22;;;;;;;5.38;3.33;;;;;;;18.52;34.07;102578.75;3605503;39;21431;-68
2023/05/03 09:41:48;;;;;;;4.68;3.00;;;;;;;18.43;33.93;102549.47;3606901;39;20067;-67
2023/05/03 09:44:16;;;;;;;3.55;3.15;;;;;;;18.59;34.54;102584.69;3606911;39;20181;-67
2023/05/03 09:47:05;;;;;;;6.22;3.42;;;;;;;18.56;33.94;102580.31;3606119;39;20067;-68
2023/05/03 09:49:32;;;;;;;10.20;3.83;;;;;;;18.59;35.35;102571.94;3610081;39;20293;-68
2023/05/03 09:52:00;;;;;;;5.07;3.22;;;;;;;18.75;33.75;102574.53;3597204;39;20058;-68
2023/05/03 09:54:26;;;;;;;5.18;2.90;;;;;;;18.67;34.07;102528.69;3606846;39;20052;-68
2023/05/03 09:56:56;;;;;;;5.90;3.15;;;;;;;18.95;33.10;102541.31;3605132;39;20108;-67
2023/05/03 09:59:22;;;;;;;5.93;2.80;;;;;;;19.05;33.66;102560.59;3610656;39;20062;-67
2023/05/03 10:01:56;;;;;;;7.28;3.55;;;;;;;18.90;34.18;102535.31;3606729;39;20047;-69
2023/05/03 10:04:26;;;;;;;6.95;3.45;;;;;;;19.19;34.79;102568.72;3608638;39;20142;-69
2023/05/03 10:07:06;;;;;;;3.60;3.05;;;;;;;18.88;32.74;102559.06;3608752;39;20051;-69
2023/05/03 10:09:41;;;;;;;10.68;5.65;;;;;;;18.87;33.59;102560.06;3611143;39;20124;-69
2023/05/03 10:12:15;;;;;;;11.20;3.20;;;;;;;18.94;34.68;102536.84;3609543;39;20063;-70
2023/05/03 10:14:45;;;;;;;5.45;3.25;;;;;;;18.60;34.26;102450.25;3609166;39;20410;-70
2023/05/03 10:17:18;;;;;;;6.72;3.17;;;;;;;19.39;32.33;102550.03;3609496;39;20051;-70
2023/05/03 10:19:54;;;;;;;12.90;3.58;;;;;;;19.56;32.11;102549.69;3606540;39;20309;-69
2023/05/03 10:22:19;;;;;;;8.52;3.38;;;;;;;19.54;30.63;102562.59;3598498;39;20110;-69
2023/05/03 10:25:00;;;;;;;4.78;2.95;;;;;;;19.38;32.09;102573.72;3609792;39;20455;-68
2023/05/03 10:27:44;;;;;;;5.75;3.38;;;;;;;19.37;32.53;102571.09;3611261;39;20055;-69
2023/05/03 10:30:42;;;;;;;3.97;3.30;;;;;;;19.50;32.16;102569.22;3607647;39;20057;-69
2023/05/03 10:33:13;;;;;;;5.80;3.50;;;;;;;19.53;33.32;102552.63;3587279;39;20514;-70
2023/05/03 10:35:47;;;;;;;6.55;3.80;;;;;;;19.24;31.85;102495.63;3608505;39;20124;-68
2023/05/03 10:38:21;;;;;;;5.40;3.03;;;;;;;19.49;33.06;102521.13;3605677;39;20063;-69
2023/05/03 10:40:47;;;;;;;5.22;3.22;;;;;;;19.93;31.73;102555.22;3608035;39;20058;-69
2023/05/03 10:43:35;;;;;;;6.38;2.78;;;;;;;19.85;30.81;102557.63;3606472;39;20046;-69
2023/05/03 10:46:07;;;;;;;6.35;3.50;;;;;;;19.96;31.11;102557.72;3609658;39;20066;-69
2023/05/03 10:48:34;;;;;;;6.10;3.30;;;;;;;20.01;31.83;102547.31;3605886;39;20043;-69
2023/05/03 10:51:29;;;;;;;6.10;3.50;;;;;;;20.11;31.56;102551.13;3607799;39;20087;-69
2023/05/03 10:53:54;;;;;;;3.70;3.03;;;;;;;20.11;31.24;102551.13;3606663;39;20065;-69
2023/05/03 10:56:20;;;;;;;6.53;3.42;;;;;;;20.13;31.74;102549.13;3610535;39;20479;-69
2023/05/03 10:58:58;;;;;;;3.97;3.13;;;;;;;20.27;32.00;102558.19;3611788;39;20047;-69
2023/05/03 11:01:26;;;;;;;5.97;3.22;;;;;;;20.24;31.59;102556.53;3612615;39;20092;-69
2023/05/03 11:04:18;;;;;;;6.65;3.28;;;;;;;20.14;31.36;102550.91;3610351;39;20066;-70
2023/05/03 11:06:45;;;;;;;7.45;3.45;;;;;;;20.46;31.56;102547.59;3609837;39;20047;-71
2023/05/03 11:09:13;;;;;;;5.05;3.63;;;;;;;20.53;31.44;102539.81;3607589;39;20370;-68
2023/05/03 11:11:40;;;;;;;6.07;3.50;;;;;;;20.59;31.84;102532.03;3611560;39;20047;-69
2023/05/03 11:14:08;;;;;;;5.57;3.55;;;;;;;20.72;31.51;102533.81;3609917;39;20046;-71
2023/05/03 11:16:39;;;;;;;5.45;3.25;;;;;;;20.89;31.58;102530.63;3611331;39;20094;-69
2023/05/03 11:19:05;;;;;;;7.50;4.00;;;;;;;20.89;31.11;102524.28;3612012;39;20049;-69
2023/05/03 11:21:31;;;;;;;7.15;3.75;;;;;;;20.94;30.48;102525.66;3608275;39;20079;-69
2023/05/03 11:23:58;;;;;;;7.25;3.78;;;;;;;20.86;31.21;102525.38;3600486;39;20069;-68
2023/05/03 11:26:24;;;;;;;6.35;3.53;;;;;;;20.85;30.45;102515.44;3607671;39;20072;-69
2023/05/03 11:28:50;;;;;;;4.55;3.03;;;;;;;20.97;30.71;102514.50;3608803;39;20278;-69
2023/05/03 11:31:16;;;;;;;5.60;3.60;;;;;;;20.98;30.80;102518.97;3609699;39;20074;-69
2023/05/03 11:33:42;;;;;;;8.93;3.83;;;;;;;20.99;30.07;102515.22;3609075;39;20382;-69